This is the latest recevied weather packets stored in our database for station/object EA5EN. If no packets are shown the sender has not sent any weather packets the latest 10 day(s).
| Time | Temp. | Humidity | Pressure | Rain* | Wind** | Luminosity | Snow |
|---|---|---|---|---|---|---|---|
| 1777896623 | 25.56° C | 57% | 1010.8 hPa | 0 mm | - | - | - |
| 1777894868 | 25° C | 57% | 1011.4 hPa | 0 mm | - | - | - |
| 1777893656 | 23.89° C | 60% | 1011.7 hPa | 0 mm | - | - | - |
| 1777892446 | 23.89° C | 63% | 1012 hPa | 0 mm | - | - | - |
| 1777891236 | 23.33° C | 68% | 1012.1 hPa | 0 mm | - | - | - |
| 1777887059 | 20.56° C | 80% | 1013 hPa | 0 mm | - | - | - |
| 1777883428 | 18.89° C | 90% | 1013 hPa | 0 mm | - | - | - |
| 1777881672 | 17.78° C | 93% | 1013.2 hPa | 0 mm | - | - | - |
| 1777879856 | 17.78° C | 95% | 1013.1 hPa | 0 mm | - | - | - |
| 1777878041 | 17.78° C | 92% | 1013 hPa | 0 mm | - | - | - |
| 1777875621 | 17.22° C | 93% | 1012.7 hPa | 0 mm | - | - | - |
| 1777870838 | 17.22° C | 94% | 1012.3 hPa | 0 mm | - | - | - |
| 1777867288 | 17.22° C | 95% | 1012.3 hPa | 0 mm | - | - | - |
| 1777866661 | 17.22° C | 95% | 1012.3 hPa | 0 mm | - | - | - |
| 1777864846 | 17.22° C | 94% | 1012.7 hPa | 0 mm | - | - | - |
| 1777863031 | 17.78° C | 94% | 1012.8 hPa | 0 mm | - | - | - |
| 1777860671 | 17.78° C | 95% | 1012.9 hPa | 0 mm | - | - | - |
| 1777858249 | 17.78° C | 93% | 1013.1 hPa | 0 mm | - | - | - |
| 1777857644 | 17.78° C | 93% | 1013.2 hPa | 0 mm | - | - | - |
| 1777856434 | 17.78° C | 92% | 1013.4 hPa | 0 mm | - | - | - |
| 1777851672 | 18.33° C | 90% | 1013.7 hPa | 0 mm | - | - | - |
| 1777846872 | 18.89° C | 86% | 1014 hPa | 0 mm | - | - | - |
| 1777846267 | 18.89° C | 86% | 1014.1 hPa | 0 mm | - | - | - |
| 1777841422 | 18.89° C | 84% | 1014.1 hPa | 0 mm | - | - | - |
| 1777833069 | 19.44° C | 77% | 1011.9 hPa | 0 mm | - | - | - |
* Rain latest hour (hover to see other rain measurements)
** Current wind speed in m/s (hover to see current wind gust speed)